createdAt,value
2023-01-13T00:01:29.228Z,100.00
2023-01-13T00:04:01.202Z,100.00
2023-01-13T00:06:29.733Z,100.00
2023-01-13T00:08:57.893Z,100.00
2023-01-13T00:11:26.356Z,100.00
2023-01-13T00:13:53.929Z,100.00
2023-01-13T00:16:21.411Z,100.00
2023-01-13T00:18:51.224Z,100.00
2023-01-13T00:21:23.893Z,100.00
2023-01-13T00:23:54.119Z,100.00
2023-01-13T00:26:24.406Z,100.00
2023-01-13T00:28:55.650Z,100.00
2023-01-13T00:31:22.944Z,100.00
2023-01-13T00:33:51.263Z,100.00
2023-01-13T00:36:22.517Z,100.00
2023-01-13T00:38:50.009Z,100.00
2023-01-13T00:41:20.110Z,100.00
2023-01-13T00:43:47.832Z,100.00
2023-01-13T00:46:17.045Z,100.00
2023-01-13T00:48:44.524Z,100.00
2023-01-13T00:51:17.768Z,100.00
2023-01-13T00:53:47.317Z,100.00
2023-01-13T00:56:38.576Z,100.00
2023-01-13T00:59:07.076Z,100.00
2023-01-13T01:01:34.497Z,100.00
2023-01-13T01:04:02.043Z,100.00
2023-01-13T01:06:29.501Z,100.00
2023-01-13T01:08:57.499Z,100.00
2023-01-13T01:11:27.364Z,100.00
2023-01-13T01:13:56.174Z,100.00
2023-01-13T01:16:25.557Z,100.00
2023-01-13T01:18:53.805Z,100.00
2023-01-13T01:21:21.924Z,100.00
2023-01-13T01:23:49.199Z,100.00
2023-01-13T01:26:27.198Z,100.00
2023-01-13T01:28:55.091Z,100.00
2023-01-13T01:31:31.609Z,100.00
2023-01-13T01:33:59.948Z,100.00
2023-01-13T01:36:29.945Z,100.00
2023-01-13T01:38:58.597Z,100.00
2023-01-13T01:41:28.501Z,100.00
2023-01-13T01:44:07.569Z,100.00
2023-01-13T01:46:38.774Z,100.00
2023-01-13T01:49:18.577Z,100.00
2023-01-13T01:51:58.731Z,100.00
2023-01-13T01:54:49.588Z,100.00
2023-01-13T01:57:24.001Z,100.00
2023-01-13T01:59:51.354Z,100.00
2023-01-13T02:02:19.011Z,100.00
2023-01-13T02:04:51.222Z,100.00
2023-01-13T02:07:31.586Z,100.00
2023-01-13T02:10:06.113Z,100.00
2023-01-13T02:12:34.155Z,100.00
2023-01-13T02:15:13.680Z,100.00
2023-01-13T02:17:53.898Z,100.00
2023-01-13T02:20:39.112Z,100.00
2023-01-13T02:23:51.747Z,100.00
2023-01-13T02:26:39.935Z,100.00
2023-01-13T02:29:42.285Z,100.00
2023-01-13T02:32:24.844Z,100.00
2023-01-13T02:35:26.419Z,100.00
2023-01-13T02:37:54.629Z,100.00
2023-01-13T02:40:27.682Z,100.00
2023-01-13T02:43:25.798Z,100.00
2023-01-13T02:46:20.939Z,100.00
2023-01-13T02:48:49.670Z,100.00
2023-01-13T02:51:19.109Z,100.00
2023-01-13T02:53:56.808Z,100.00
2023-01-13T02:56:25.296Z,100.00
2023-01-13T02:58:54.247Z,100.00
2023-01-13T03:01:21.991Z,100.00
2023-01-13T03:03:50.136Z,100.00
2023-01-13T03:06:37.437Z,100.00
2023-01-13T03:09:27.223Z,100.00
2023-01-13T03:12:03.947Z,100.00
2023-01-13T03:14:41.458Z,100.00
2023-01-13T03:17:40.782Z,100.00
2023-01-13T03:20:15.938Z,100.00
2023-01-13T03:22:51.671Z,100.00
2023-01-13T03:25:24.298Z,100.00
2023-01-13T03:28:02.315Z,100.00
2023-01-13T03:30:41.172Z,100.00
2023-01-13T03:33:26.895Z,100.00
2023-01-13T03:36:02.524Z,100.00
2023-01-13T03:38:38.626Z,100.00
2023-01-13T03:41:28.557Z,100.00
2023-01-13T03:44:24.791Z,100.00
2023-01-13T03:47:10.175Z,100.00
2023-01-13T03:50:14.915Z,100.00
2023-01-13T03:52:51.987Z,100.00
2023-01-13T03:55:22.982Z,100.00
2023-01-13T03:58:03.686Z,100.00
2023-01-13T04:00:38.937Z,100.00
2023-01-13T04:03:09.215Z,100.00
2023-01-13T04:05:40.268Z,100.00
2023-01-13T04:08:23.297Z,100.00
2023-01-13T04:11:02.200Z,100.00
2023-01-13T04:13:32.151Z,100.00
2023-01-13T04:16:00.669Z,100.00
2023-01-13T04:18:30.487Z,100.00
2023-01-13T04:21:00.599Z,100.00
2023-01-13T04:23:28.695Z,100.00
2023-01-13T04:25:56.524Z,100.00
2023-01-13T04:28:23.846Z,100.00
2023-01-13T04:30:51.402Z,100.00
2023-01-13T04:33:19.569Z,100.00
2023-01-13T04:35:47.822Z,100.00
2023-01-13T04:38:16.943Z,100.00
2023-01-13T04:40:44.244Z,100.00
2023-01-13T04:43:11.752Z,100.00
2023-01-13T04:45:39.191Z,100.00
2023-01-13T04:48:06.695Z,100.00
2023-01-13T04:50:34.139Z,100.00
2023-01-13T04:53:01.350Z,100.00
2023-01-13T04:55:29.066Z,100.00
2023-01-13T04:57:56.319Z,100.00
2023-01-13T05:00:24.033Z,100.00
2023-01-13T05:02:52.149Z,100.00
2023-01-13T05:05:19.813Z,100.00
2023-01-13T05:07:47.266Z,100.00
2023-01-13T05:10:15.222Z,100.00
2023-01-13T05:13:01.157Z,100.00
2023-01-13T05:15:47.052Z,100.00
2023-01-13T05:18:14.636Z,100.00
2023-01-13T05:20:42.019Z,100.00
2023-01-13T05:23:27.516Z,100.00
2023-01-13T05:25:54.789Z,100.00
2023-01-13T05:28:22.052Z,100.00
2023-01-13T05:30:49.649Z,100.00
2023-01-13T05:33:20.869Z,100.00
2023-01-13T05:35:48.785Z,100.00
2023-01-13T05:38:18.166Z,100.00
2023-01-13T05:41:04.441Z,100.00
2023-01-13T05:43:33.018Z,100.00
2023-01-13T05:46:06.911Z,100.00
2023-01-13T05:48:39.273Z,100.00
2023-01-13T05:51:08.552Z,100.00
2023-01-13T05:53:36.058Z,100.00
2023-01-13T05:56:07.158Z,100.00
2023-01-13T05:58:34.865Z,100.00
2023-01-13T06:01:04.102Z,100.00
2023-01-13T06:03:31.364Z,100.00
2023-01-13T06:06:01.685Z,100.00
2023-01-13T06:08:29.522Z,100.00
2023-01-13T06:10:56.901Z,100.00
2023-01-13T06:13:25.428Z,100.00
2023-01-13T06:15:56.071Z,100.00
2023-01-13T06:18:23.408Z,100.00
2023-01-13T06:20:50.603Z,100.00
2023-01-13T06:23:17.893Z,100.00
2023-01-13T06:26:02.334Z,100.00
2023-01-13T06:28:29.604Z,100.00
2023-01-13T06:31:01.300Z,100.00
2023-01-13T06:33:33.333Z,100.00
2023-01-13T06:36:04.106Z,100.00
2023-01-13T06:38:34.164Z,100.00
2023-01-13T06:41:01.411Z,100.00
2023-01-13T06:43:29.178Z,100.00
2023-01-13T06:45:57.283Z,100.00
2023-01-13T06:48:27.942Z,100.00
2023-01-13T06:50:55.368Z,100.00
2023-01-13T06:53:23.107Z,100.00
2023-01-13T06:55:50.486Z,100.00
2023-01-13T06:58:18.119Z,100.00
2023-01-13T07:00:49.673Z,100.00
2023-01-13T07:03:17.745Z,100.00
2023-01-13T07:05:52.330Z,100.00
2023-01-13T07:08:19.566Z,100.00
2023-01-13T07:10:47.005Z,100.00
2023-01-13T07:13:32.948Z,100.00
2023-01-13T07:16:07.888Z,100.00
2023-01-13T07:18:35.828Z,100.00
2023-01-13T07:21:06.200Z,100.00
2023-01-13T07:23:36.441Z,100.00
2023-01-13T07:26:04.589Z,100.00
2023-01-13T07:28:32.728Z,100.00
2023-01-13T07:31:00.614Z,100.00
2023-01-13T07:33:28.412Z,100.00
2023-01-13T07:36:03.554Z,100.00
2023-01-13T07:38:31.640Z,100.00
2023-01-13T07:41:18.870Z,100.00
2023-01-13T07:43:46.048Z,100.00
2023-01-13T07:46:13.354Z,100.00
2023-01-13T07:48:40.641Z,100.00
2023-01-13T07:51:10.032Z,100.00
2023-01-13T07:53:37.494Z,100.00
2023-01-13T07:56:05.722Z,100.00
2023-01-13T07:58:34.521Z,100.00
2023-01-13T08:01:14.066Z,100.00
2023-01-13T08:03:41.604Z,100.00
2023-01-13T08:06:10.079Z,100.00
2023-01-13T08:08:37.529Z,100.00
2023-01-13T08:11:06.542Z,100.00
2023-01-13T08:13:34.070Z,100.00
2023-01-13T08:16:05.173Z,100.00
2023-01-13T08:18:33.297Z,100.00
2023-01-13T08:21:09.120Z,100.00
2023-01-13T08:23:36.434Z,100.00
2023-01-13T08:26:08.799Z,100.00
2023-01-13T08:28:37.390Z,100.00
2023-01-13T08:31:10.269Z,100.00
2023-01-13T08:33:38.103Z,100.00
2023-01-13T08:36:07.243Z,100.00
2023-01-13T08:38:35.421Z,100.00
2023-01-13T08:41:11.936Z,100.00
2023-01-13T08:43:39.252Z,100.00
2023-01-13T08:46:06.704Z,100.00
2023-01-13T08:48:34.425Z,100.00
2023-01-13T08:51:06.841Z,100.00
2023-01-13T08:53:35.699Z,100.00
2023-01-13T08:56:06.555Z,100.00
2023-01-13T08:58:34.030Z,100.00
2023-01-13T09:01:06.132Z,100.00
2023-01-13T09:03:34.509Z,100.00
2023-01-13T09:06:02.032Z,100.00
2023-01-13T09:08:29.238Z,100.00
2023-01-13T09:10:56.951Z,100.00
2023-01-13T09:13:24.428Z,100.00
2023-01-13T09:15:52.531Z,100.00
2023-01-13T09:18:32.074Z,100.00
2023-01-13T09:20:59.883Z,100.00
2023-01-13T09:23:29.203Z,100.00
2023-01-13T09:25:57.409Z,100.00
2023-01-13T09:28:24.641Z,100.00
2023-01-13T09:30:52.001Z,100.00
2023-01-13T09:33:39.912Z,100.00
2023-01-13T09:36:07.631Z,100.00
2023-01-13T09:38:35.030Z,100.00
2023-01-13T09:41:22.261Z,100.00
2023-01-13T09:43:54.102Z,100.00
2023-01-13T09:46:43.516Z,100.00
2023-01-13T09:49:22.889Z,100.00
2023-01-13T09:52:09.375Z,100.00
2023-01-13T09:54:45.397Z,100.00
2023-01-13T09:57:15.073Z,100.00
2023-01-13T09:59:42.658Z,100.00
2023-01-13T10:02:40.704Z,100.00
2023-01-13T10:05:11.070Z,100.00
2023-01-13T10:07:45.092Z,100.00
2023-01-13T10:10:18.491Z,100.00
2023-01-13T10:13:05.636Z,100.00
2023-01-13T10:15:34.301Z,100.00
2023-01-13T10:18:19.386Z,100.00
2023-01-13T10:21:13.088Z,100.00
2023-01-13T10:24:14.744Z,100.00
2023-01-13T10:27:00.436Z,100.00
2023-01-13T10:29:30.328Z,100.00
2023-01-13T10:31:59.665Z,100.00
2023-01-13T10:34:27.664Z,100.00
2023-01-13T10:37:04.211Z,100.00
2023-01-13T10:39:43.747Z,100.00
2023-01-13T10:42:17.682Z,100.00
2023-01-13T10:45:03.778Z,100.00
2023-01-13T10:47:33.367Z,100.00
2023-01-13T10:50:16.199Z,100.00
2023-01-13T10:53:01.806Z,100.00
2023-01-13T10:55:38.890Z,100.00
2023-01-13T10:58:18.075Z,100.00
2023-01-13T11:00:45.426Z,100.00
2023-01-13T11:03:16.792Z,100.00
2023-01-13T11:05:59.665Z,100.00
2023-01-13T11:08:29.326Z,100.00
2023-01-13T11:10:58.574Z,100.00
2023-01-13T11:13:27.422Z,100.00
2023-01-13T11:16:05.682Z,100.00
2023-01-13T11:19:02.146Z,100.00
2023-01-13T11:21:41.216Z,100.00
2023-01-13T11:24:18.962Z,100.00
2023-01-13T11:26:55.924Z,100.00
2023-01-13T11:29:46.405Z,100.00
2023-01-13T11:32:19.224Z,100.00
2023-01-13T11:34:52.612Z,100.00
2023-01-13T11:37:31.841Z,100.00
2023-01-13T11:40:06.789Z,100.00
2023-01-13T11:43:20.179Z,100.00
2023-01-13T11:45:51.168Z,100.00
2023-01-13T11:48:21.269Z,100.00
2023-01-13T11:50:55.211Z,100.00
2023-01-13T11:53:46.725Z,100.00
2023-01-13T11:56:52.736Z,100.00
2023-01-13T11:59:31.949Z,100.00
2023-01-13T12:01:59.017Z,100.00
2023-01-13T12:04:53.597Z,100.00
2023-01-13T12:07:42.122Z,100.00
2023-01-13T12:10:46.339Z,100.00
2023-01-13T12:13:24.159Z,100.00
2023-01-13T12:16:02.905Z,100.00
2023-01-13T12:18:48.318Z,100.00
2023-01-13T12:21:27.191Z,100.00
2023-01-13T12:24:09.477Z,100.00
2023-01-13T12:26:41.447Z,100.00
2023-01-13T12:29:19.009Z,100.00
2023-01-13T12:31:49.011Z,100.00
2023-01-13T12:34:43.709Z,100.00
2023-01-13T12:37:21.631Z,100.00
2023-01-13T12:40:11.997Z,100.00
2023-01-13T12:43:23.266Z,100.00
2023-01-13T12:45:50.495Z,99.11
2023-01-13T12:48:59.274Z,100.00
2023-01-13T12:51:28.860Z,100.00
2023-01-13T12:53:56.968Z,100.00
2023-01-13T12:56:39.002Z,100.00
2023-01-13T12:59:21.534Z,99.61
2023-01-13T13:01:51.976Z,100.00
2023-01-13T13:04:43.385Z,100.00
2023-01-13T13:07:23.565Z,100.00
2023-01-13T13:09:53.350Z,99.45
2023-01-13T13:13:07.236Z,99.77
2023-01-13T13:15:35.650Z,100.00
2023-01-13T13:18:08.860Z,100.00
2023-01-13T13:21:04.317Z,97.78
2023-01-13T13:23:37.099Z,100.00
2023-01-13T13:26:24.862Z,98.33
2023-01-13T13:29:16.384Z,99.95
2023-01-13T13:32:17.364Z,97.48
2023-01-13T13:34:56.844Z,93.92
2023-01-13T13:38:08.563Z,96.89
2023-01-13T13:41:01.619Z,100.00
2023-01-13T13:43:48.661Z,100.00
2023-01-13T13:46:48.149Z,100.00
2023-01-13T13:49:20.711Z,95.26
2023-01-13T13:52:15.444Z,96.11
2023-01-13T13:54:47.588Z,94.10
2023-01-13T13:57:20.046Z,91.40
2023-01-13T13:59:50.773Z,95.54
2023-01-13T14:02:38.424Z,90.84
2023-01-13T14:05:18.569Z,93.12
2023-01-13T14:07:48.342Z,93.05
2023-01-13T14:10:33.485Z,86.73
2023-01-13T14:13:03.114Z,94.21
2023-01-13T14:15:36.083Z,93.57
2023-01-13T14:18:13.593Z,93.19
2023-01-13T14:20:41.507Z,91.49
2023-01-13T14:23:18.778Z,93.13
2023-01-13T14:25:51.025Z,93.28
2023-01-13T14:28:23.518Z,91.05
2023-01-13T14:30:51.674Z,87.67
2023-01-13T14:33:22.316Z,84.21
2023-01-13T14:36:16.405Z,91.76
2023-01-13T14:38:47.626Z,92.81
2023-01-13T14:41:24.324Z,91.99
2023-01-13T14:43:54.287Z,93.03
2023-01-13T14:46:23.275Z,93.98
2023-01-13T14:48:59.508Z,95.74
2023-01-13T14:51:29.730Z,92.37
2023-01-13T14:53:57.860Z,92.49
2023-01-13T14:56:43.990Z,93.95
2023-01-13T14:59:40.942Z,92.35
2023-01-13T15:02:40.840Z,87.84
2023-01-13T15:05:20.181Z,93.83
2023-01-13T15:08:05.372Z,91.30
2023-01-13T15:10:54.714Z,90.28
2023-01-13T15:13:35.653Z,95.39
2023-01-13T15:16:27.812Z,93.56
2023-01-13T15:18:56.048Z,93.64
2023-01-13T15:21:26.638Z,98.35
2023-01-13T15:23:53.887Z,98.29
2023-01-13T15:26:22.242Z,95.59
2023-01-13T15:28:50.638Z,96.81
2023-01-13T15:31:18.225Z,92.93
2023-01-13T15:33:45.510Z,96.48
2023-01-13T15:36:26.428Z,95.88
2023-01-13T15:38:53.991Z,97.29
2023-01-13T15:41:41.524Z,100.00
2023-01-13T15:44:30.539Z,91.85
2023-01-13T15:46:58.715Z,94.96
2023-01-13T15:49:28.265Z,93.28
2023-01-13T15:51:55.434Z,93.94
2023-01-13T15:54:24.543Z,91.92
2023-01-13T15:56:52.574Z,95.18
2023-01-13T15:59:22.438Z,94.48
2023-01-13T16:01:49.694Z,92.85
2023-01-13T16:04:16.985Z,91.47
2023-01-13T16:06:44.314Z,88.62
2023-01-13T16:09:15.093Z,91.81
2023-01-13T16:11:42.710Z,93.14
2023-01-13T16:14:12.695Z,91.05
2023-01-13T16:16:44.846Z,93.06
2023-01-13T16:19:15.041Z,95.08
2023-01-13T16:21:42.545Z,91.03
2023-01-13T16:24:09.823Z,95.26
2023-01-13T16:26:38.902Z,97.92
2023-01-13T16:29:08.107Z,100.00
2023-01-13T16:31:35.553Z,100.00
2023-01-13T16:34:03.622Z,97.59
2023-01-13T16:36:33.616Z,100.00
2023-01-13T16:39:01.405Z,100.00
2023-01-13T16:41:28.699Z,100.00
2023-01-13T16:43:55.942Z,100.00
2023-01-13T16:46:28.839Z,99.61
2023-01-13T16:48:58.035Z,100.00
2023-01-13T16:51:25.417Z,100.00
2023-01-13T16:53:52.853Z,100.00
2023-01-13T16:56:31.434Z,100.00
2023-01-13T16:59:10.271Z,100.00
2023-01-13T17:01:39.946Z,100.00
2023-01-13T17:04:09.170Z,100.00
2023-01-13T17:06:54.594Z,100.00
2023-01-13T17:09:24.272Z,100.00
2023-01-13T17:11:51.791Z,100.00
2023-01-13T17:14:22.931Z,100.00
2023-01-13T17:16:52.137Z,100.00
2023-01-13T17:19:20.957Z,100.00
2023-01-13T17:21:48.288Z,100.00
2023-01-13T17:24:15.519Z,100.00
2023-01-13T17:26:47.509Z,100.00
2023-01-13T17:29:17.401Z,99.29
2023-01-13T17:31:44.893Z,100.00
2023-01-13T17:34:12.876Z,100.00
2023-01-13T17:36:40.220Z,97.44
2023-01-13T17:39:07.476Z,97.19
2023-01-13T17:41:34.713Z,98.14
2023-01-13T17:44:01.988Z,99.31
2023-01-13T17:46:29.217Z,97.74
2023-01-13T17:48:56.434Z,99.16
2023-01-13T17:51:25.185Z,100.00
2023-01-13T17:53:53.823Z,100.00
2023-01-13T17:56:21.126Z,100.00
2023-01-13T17:58:48.505Z,100.00
2023-01-13T18:01:19.181Z,99.27
2023-01-13T18:03:46.637Z,100.00
2023-01-13T18:06:22.565Z,100.00
2023-01-13T18:08:50.378Z,100.00
2023-01-13T18:11:18.988Z,100.00
2023-01-13T18:13:51.349Z,100.00
2023-01-13T18:16:19.661Z,100.00
2023-01-13T18:18:48.786Z,100.00
2023-01-13T18:21:45.243Z,100.00
2023-01-13T18:24:33.067Z,99.67
2023-01-13T18:27:19.041Z,99.43
2023-01-13T18:29:47.026Z,100.00
2023-01-13T18:32:14.598Z,99.99
2023-01-13T18:34:42.208Z,99.70
2023-01-13T18:37:10.965Z,100.00
2023-01-13T18:39:38.143Z,100.00
2023-01-13T18:42:24.987Z,100.00
2023-01-13T18:44:53.259Z,100.00
2023-01-13T18:47:20.835Z,100.00
2023-01-13T18:49:48.855Z,100.00
2023-01-13T18:52:16.112Z,100.00
2023-01-13T18:54:43.328Z,100.00
2023-01-13T18:57:10.989Z,100.00
2023-01-13T18:59:38.390Z,100.00
2023-01-13T19:02:09.509Z,100.00
2023-01-13T19:04:36.817Z,100.00
2023-01-13T19:07:05.074Z,100.00
2023-01-13T19:09:33.029Z,100.00
2023-01-13T19:12:01.388Z,100.00
2023-01-13T19:14:34.848Z,100.00
2023-01-13T19:17:09.447Z,100.00
2023-01-13T19:19:40.867Z,100.00
2023-01-13T19:22:08.642Z,100.00
2023-01-13T19:24:35.889Z,100.00
2023-01-13T19:27:03.186Z,100.00
2023-01-13T19:29:33.170Z,100.00
2023-01-13T19:32:01.174Z,100.00
2023-01-13T19:34:28.634Z,98.90
2023-01-13T19:36:56.158Z,100.00
2023-01-13T19:39:23.839Z,100.00
2023-01-13T19:42:10.193Z,100.00
2023-01-13T19:44:55.852Z,100.00
2023-01-13T19:47:23.314Z,100.00
2023-01-13T19:49:50.629Z,100.00
2023-01-13T19:52:17.992Z,100.00
2023-01-13T19:54:47.362Z,100.00
2023-01-13T19:57:14.997Z,100.00
2023-01-13T19:59:42.729Z,100.00
2023-01-13T20:02:27.739Z,100.00
2023-01-13T20:05:00.445Z,100.00
2023-01-13T20:07:29.943Z,100.00
2023-01-13T20:09:57.502Z,100.00
2023-01-13T20:12:25.739Z,100.00
2023-01-13T20:14:53.143Z,100.00
2023-01-13T20:17:21.677Z,100.00
2023-01-13T20:19:49.031Z,100.00
2023-01-13T20:22:16.699Z,100.00
2023-01-13T20:24:43.975Z,100.00
2023-01-13T20:27:11.216Z,100.00
2023-01-13T20:29:38.567Z,100.00
2023-01-13T20:32:05.908Z,100.00
2023-01-13T20:34:33.143Z,100.00
2023-01-13T20:37:00.468Z,100.00
2023-01-13T20:39:27.860Z,100.00
2023-01-13T20:42:14.199Z,100.00
2023-01-13T20:44:41.668Z,100.00
2023-01-13T20:47:09.070Z,100.00
2023-01-13T20:49:37.064Z,100.00
2023-01-13T20:52:09.432Z,100.00
2023-01-13T20:54:37.383Z,100.00
2023-01-13T20:57:05.559Z,100.00
2023-01-13T20:59:32.728Z,100.00
2023-01-13T21:02:00.109Z,100.00
2023-01-13T21:04:28.821Z,100.00
2023-01-13T21:06:58.672Z,100.00
2023-01-13T21:09:27.244Z,100.00
2023-01-13T21:12:13.877Z,100.00
2023-01-13T21:15:00.224Z,100.00
2023-01-13T21:17:50.884Z,100.00
2023-01-13T21:20:18.360Z,100.00
2023-01-13T21:22:49.121Z,100.00
2023-01-13T21:25:18.024Z,100.00
2023-01-13T21:27:46.535Z,100.00
2023-01-13T21:30:15.405Z,100.00
2023-01-13T21:32:45.408Z,100.00
2023-01-13T21:35:13.965Z,100.00
2023-01-13T21:37:42.434Z,100.00
2023-01-13T21:40:12.014Z,100.00
2023-01-13T21:42:57.782Z,100.00
2023-01-13T21:45:44.083Z,100.00
2023-01-13T21:48:11.357Z,100.00
2023-01-13T21:50:38.715Z,100.00
2023-01-13T21:53:07.985Z,100.00
2023-01-13T21:55:36.778Z,100.00
2023-01-13T21:58:14.693Z,100.00
2023-01-13T22:00:44.043Z,100.00
2023-01-13T22:03:12.703Z,100.00
2023-01-13T22:05:40.467Z,100.00
2023-01-13T22:08:08.364Z,100.00
2023-01-13T22:10:35.813Z,100.00
2023-01-13T22:13:23.839Z,100.00
2023-01-13T22:15:51.213Z,100.00
2023-01-13T22:18:18.565Z,100.00
2023-01-13T22:20:46.047Z,100.00
2023-01-13T22:23:13.526Z,100.00
2023-01-13T22:25:40.776Z,100.00
2023-01-13T22:28:09.549Z,100.00
2023-01-13T22:30:37.087Z,100.00
2023-01-13T22:33:04.332Z,100.00
2023-01-13T22:35:31.652Z,100.00
2023-01-13T22:37:59.081Z,100.00
2023-01-13T22:40:26.288Z,100.00
2023-01-13T22:42:53.516Z,100.00
2023-01-13T22:45:20.792Z,100.00
2023-01-13T22:47:49.609Z,100.00
2023-01-13T22:50:20.829Z,100.00
2023-01-13T22:52:48.431Z,100.00
2023-01-13T22:55:15.735Z,100.00
2023-01-13T22:57:48.026Z,100.00
2023-01-13T23:00:18.806Z,100.00
2023-01-13T23:02:46.517Z,100.00
2023-01-13T23:05:13.916Z,100.00
2023-01-13T23:07:41.291Z,100.00
2023-01-13T23:10:09.113Z,100.00
2023-01-13T23:12:36.625Z,100.00
2023-01-13T23:15:05.188Z,100.00
2023-01-13T23:17:32.448Z,100.00
2023-01-13T23:19:59.714Z,100.00
2023-01-13T23:22:26.953Z,100.00
2023-01-13T23:24:54.121Z,100.00
2023-01-13T23:27:21.382Z,100.00
2023-01-13T23:29:49.160Z,100.00
2023-01-13T23:32:16.326Z,100.00
2023-01-13T23:34:43.568Z,100.00
2023-01-13T23:37:10.784Z,100.00
2023-01-13T23:39:37.992Z,100.00
2023-01-13T23:42:05.281Z,100.00
2023-01-13T23:44:32.516Z,100.00
2023-01-13T23:46:59.758Z,100.00
2023-01-13T23:49:26.996Z,100.00
2023-01-13T23:51:54.291Z,100.00
2023-01-13T23:54:21.675Z,100.00
2023-01-13T23:56:50.591Z,100.00
2023-01-13T23:59:18.061Z,100.00
